Delta Virtual Airport Information Service

Cape Town International Airport

ICAO: FACT Country: South Africa
Latitude: -33.9648 Longitude: 18.6017
Latest Arrival : UAL1122 (A) (KEWR-FACT) Latest Departure : UAE2606 (A) (FACT-OMDB)


WX CaptureLIVE
Data provided by noaa.gov | Fetched at 14:55:52

METAR : FACT 151900Z 25010KT 220V290 7000 -RA BKN035 08/06 Q1020 TEMPO 4000

TAF : FACT 151800Z 1518/1624 20012KT 9999 BKN035 TX14/1612Z TN10/1605Z PROB30 TEMPO 1518/1606 4500 -SHRA BECMG 1521/1523 35011KT BECMG 1612/1614 19010KT FM161600 19007KT 9999 FEW020


Runway Data for FACT
Data provided by openaviationdata.com

Runway ID Mag Var Hdg Length Elevation Surface ILS Freq ILS Id ILS Slope
1 -23 10526 ft 151 ft Asphalt 110.3 CTI 3
16 -23 158° 5578 ft 151 ft Asphalt -- -- --
19 -23 188° 10526 ft 151 ft Asphalt 109.1 KSI 3
34 -23 338° 5578 ft 151 ft Asphalt -- -- --

Cape Town International Airport, South Africa
Use only for reference purposes



Not for navigational purposes.